Time;durP1;ratioP1;P1;durP2;ratioP2;P2;SDS_P1;SDS_P2;PMS_P1;PMS_P2;Temp;Humidity;BMP_temperature;BMP_pressure;BME280_temperature;BME280_humidity;BME280_pressure;Samples;Min_cycle;Max_cycle;Signal;HPM_P1;HPM_P2
2022/10/10 00:01:41;;;;;;;8.80;6.53;;;23.00;99.90;;;;;;6255577;27;83638;-66
2022/10/10 00:04:43;;;;;;;7.55;6.38;;;23.00;99.90;;;;;;6257841;27;83267;-66
2022/10/10 00:07:45;;;;;;;7.32;6.18;;;23.00;99.90;;;;;;6245104;27;84060;-66
2022/10/10 00:10:47;;;;;;;8.90;6.20;;;23.00;99.90;;;;;;6244614;27;84045;-66
2022/10/10 00:13:51;;;;;;;7.25;6.55;;;23.00;99.90;;;;;;6254989;27;84972;-66
2022/10/10 00:16:53;;;;;;;7.47;6.68;;;23.00;99.90;;;;;;6257468;27;84066;-66
2022/10/10 00:19:55;;;;;;;6.97;6.28;;;23.00;99.90;;;;;;6253325;27;84354;-66
2022/10/10 00:22:57;;;;;;;7.60;6.28;;;23.00;99.90;;;;;;6255795;27;83960;-66
2022/10/10 00:26:00;;;;;;;7.88;7.07;;;23.00;99.90;;;;;;6256964;27;84013;-66
2022/10/10 00:29:03;;;;;;;8.05;6.78;;;23.00;99.90;;;;;;6246368;27;84076;-66
2022/10/10 00:32:05;;;;;;;8.30;6.45;;;23.00;99.90;;;;;;6248304;28;84092;-66
2022/10/10 00:35:08;;;;;;;7.65;5.68;;;23.00;99.90;;;;;;6261104;27;83251;-66
2022/10/10 00:38:11;;;;;;;6.43;5.72;;;23.00;99.90;;;;;;6261296;27;84203;-66
2022/10/10 00:41:13;;;;;;;7.45;6.30;;;23.00;99.90;;;;;;6253837;27;84207;-66
2022/10/10 00:44:16;;;;;;;6.95;6.07;;;23.00;99.90;;;;;;6261674;27;85102;-66
2022/10/10 00:47:18;;;;;;;8.60;6.75;;;22.90;99.90;;;;;;6249090;27;84758;-66
2022/10/10 00:50:23;;;;;;;8.13;6.18;;;22.90;99.90;;;;;;6248996;27;84068;-66
2022/10/10 00:53:28;;;;;;;7.13;6.43;;;22.90;99.90;;;;;;6254512;27;83999;-66
2022/10/10 00:56:35;;;;;;;7.07;6.10;;;22.90;99.90;;;;;;6251484;27;84306;-66
2022/10/10 00:59:42;;;;;;;7.72;6.43;;;22.90;99.90;;;;;;6262199;27;83956;-66
2022/10/10 01:02:44;;;;;;;6.68;5.97;;;22.90;99.90;;;;;;6249677;27;84084;-66
2022/10/10 01:05:49;;;;;;;8.57;6.57;;;22.90;99.90;;;;;;6260204;27;83325;-66
2022/10/10 01:08:51;;;;;;;6.75;6.05;;;22.90;99.90;;;;;;6261168;27;84103;-66
2022/10/10 01:11:57;;;;;;;6.95;6.25;;;22.90;99.90;;;;;;6257343;27;83613;-66
2022/10/10 01:15:08;;;;;;;6.72;5.90;;;22.90;99.90;;;;;;6255200;28;85078;-66
2022/10/10 01:18:18;;;;;;;6.65;5.95;;;22.90;99.90;;;;;;6259358;27;84060;-66
2022/10/10 01:21:28;;;;;;;7.07;6.35;;;22.90;99.90;;;;;;6258527;27;84447;-66
2022/10/10 01:24:46;;;;;;;6.78;6.15;;;22.80;99.90;;;;;;6260146;27;82858;-66
2022/10/10 01:27:53;;;;;;;7.00;6.30;;;22.90;99.90;;;;;;6253159;27;84022;-66
2022/10/10 01:30:58;;;;;;;6.43;5.55;;;22.90;99.90;;;;;;6251997;27;82967;-66
2022/10/10 01:34:09;;;;;;;7.00;5.90;;;22.80;99.90;;;;;;6253965;27;84194;-66
2022/10/10 01:37:17;;;;;;;6.53;5.90;;;22.80;99.90;;;;;;6259840;27;83263;-66
2022/10/10 01:40:26;;;;;;;6.60;5.70;;;22.80;99.90;;;;;;6256342;27;83993;-66
2022/10/10 01:43:30;;;;;;;6.90;6.20;;;22.90;99.90;;;;;;6238739;27;84033;-66
2022/10/10 01:46:34;;;;;;;7.55;6.15;;;22.80;99.90;;;;;;6248090;27;84996;-66
2022/10/10 01:49:36;;;;;;;6.80;5.93;;;22.80;99.90;;;;;;6258668;27;85279;-66
2022/10/10 01:52:48;;;;;;;7.97;6.18;;;22.80;99.90;;;;;;6259204;27;84265;-66
2022/10/10 01:55:59;;;;;;;8.38;6.05;;;22.80;99.90;;;;;;6259032;27;84133;-66
2022/10/10 01:59:17;;;;;;;6.80;5.93;;;22.80;99.90;;;;;;6244654;27;84016;-66
2022/10/10 02:02:29;;;;;;;6.97;6.07;;;22.80;99.90;;;;;;6253227;27;84066;-66
2022/10/10 02:05:39;;;;;;;6.05;5.43;;;22.80;99.90;;;;;;6256554;27;84193;-66
2022/10/10 02:08:45;;;;;;;6.10;5.50;;;22.80;99.90;;;;;;6249164;27;83251;-66
2022/10/10 02:11:48;;;;;;;6.13;5.32;;;22.80;99.90;;;;;;6237717;27;84098;-66
2022/10/10 02:14:54;;;;;;;7.90;6.15;;;22.70;99.90;;;;;;6257432;27;84113;-66
2022/10/10 02:17:59;;;;;;;7.03;5.88;;;22.80;99.90;;;;;;6249752;27;84680;-66
2022/10/10 02:21:03;;;;;;;7.03;6.22;;;22.70;99.90;;;;;;6259001;27;84136;-66
2022/10/10 02:24:08;;;;;;;6.88;5.82;;;22.80;99.90;;;;;;6249781;27;84640;-66
2022/10/10 02:27:16;;;;;;;8.38;6.22;;;22.70;99.90;;;;;;6259813;27;84013;-66
2022/10/10 02:30:19;;;;;;;6.05;5.22;;;22.70;99.90;;;;;;6253460;27;84123;-66
2022/10/10 02:33:28;;;;;;;6.60;5.60;;;22.70;99.90;;;;;;6257467;27;84065;-66
2022/10/10 02:36:31;;;;;;;6.75;5.90;;;22.70;99.90;;;;;;6247974;27;84071;-66
2022/10/10 02:39:36;;;;;;;6.13;5.50;;;22.80;99.90;;;;;;6258954;28;83576;-66
2022/10/10 02:42:40;;;;;;;6.18;5.22;;;22.70;99.90;;;;;;6246222;27;84109;-66
2022/10/10 02:45:43;;;;;;;5.88;5.28;;;22.70;99.90;;;;;;6257461;27;84179;-66
2022/10/10 02:48:47;;;;;;;6.57;5.75;;;22.70;99.90;;;;;;6255788;27;84582;-66
2022/10/10 02:51:49;;;;;;;5.93;5.20;;;22.70;99.90;;;;;;6239973;27;84444;-66
2022/10/10 02:54:51;;;;;;;6.97;5.57;;;22.70;99.90;;;;;;6242434;27;84327;-66
2022/10/10 02:57:53;;;;;;;7.13;5.80;;;22.70;99.90;;;;;;6250830;27;84577;-66
2022/10/10 03:00:55;;;;;;;7.40;5.78;;;22.70;99.90;;;;;;6245615;27;84043;-66
2022/10/10 03:03:58;;;;;;;5.97;5.38;;;22.70;99.90;;;;;;6259904;27;82939;-66
2022/10/10 03:07:00;;;;;;;5.70;4.95;;;22.70;99.90;;;;;;6255829;27;84541;-66
2022/10/10 03:10:03;;;;;;;6.45;5.65;;;22.70;99.90;;;;;;6236443;27;83327;-66
2022/10/10 03:13:05;;;;;;;6.25;5.28;;;22.70;99.90;;;;;;6258116;27;84057;-66
2022/10/10 03:16:07;;;;;;;5.85;5.22;;;22.70;99.90;;;;;;6248589;27;83726;-66
2022/10/10 03:19:11;;;;;;;5.22;4.72;;;22.70;99.90;;;;;;6258059;27;84966;-66
2022/10/10 03:22:13;;;;;;;5.28;4.78;;;22.70;99.90;;;;;;6238327;27;85646;-66
2022/10/10 03:25:15;;;;;;;5.22;4.72;;;22.70;99.90;;;;;;6254561;27;83210;-66
2022/10/10 03:28:17;;;;;;;5.10;4.57;;;22.70;99.90;;;;;;6258089;27;84414;-66
2022/10/10 03:31:19;;;;;;;5.38;4.63;;;22.60;99.90;;;;;;6258316;27;84000;-66
2022/10/10 03:34:23;;;;;;;6.43;4.72;;;22.60;99.90;;;;;;6246580;27;83887;-66
2022/10/10 03:37:25;;;;;;;5.05;4.55;;;22.60;99.90;;;;;;6247546;27;84518;-65
2022/10/10 03:40:29;;;;;;;6.53;5.28;;;22.60;99.90;;;;;;6246714;27;83440;-66
2022/10/10 03:43:32;;;;;;;5.40;4.55;;;22.60;99.90;;;;;;6234072;27;84089;-65
2022/10/10 03:46:34;;;;;;;4.90;4.40;;;22.60;99.90;;;;;;6233532;27;84157;-65
2022/10/10 03:49:37;;;;;;;6.00;5.20;;;22.70;99.90;;;;;;6251224;27;85017;-66
2022/10/10 03:52:39;;;;;;;6.78;5.05;;;22.70;99.90;;;;;;6253550;27;84039;-66
2022/10/10 03:55:42;;;;;;;5.15;4.65;;;22.60;99.90;;;;;;6236471;27;84146;-66
2022/10/10 03:58:44;;;;;;;6.72;5.00;;;22.70;99.90;;;;;;6258413;27;84060;-66
2022/10/10 04:01:46;;;;;;;5.38;4.60;;;22.60;99.90;;;;;;6244520;27;83994;-66
2022/10/10 04:04:49;;;;;;;5.07;4.57;;;22.70;99.90;;;;;;6246114;27;84056;-66
2022/10/10 04:07:51;;;;;;;5.05;4.35;;;22.70;99.90;;;;;;6245311;27;82955;-66
2022/10/10 04:10:55;;;;;;;4.70;4.30;;;22.70;99.90;;;;;;6245124;27;82140;-66
2022/10/10 04:13:57;;;;;;;4.85;4.10;;;22.70;99.90;;;;;;6239582;27;85182;-66
2022/10/10 04:16:59;;;;;;;4.75;4.20;;;22.70;99.90;;;;;;6257070;27;83742;-66
2022/10/10 04:20:02;;;;;;;5.15;4.10;;;22.70;99.90;;;;;;6257610;27;84212;-66
2022/10/10 04:23:04;;;;;;;4.78;4.28;;;22.70;99.90;;;;;;6251499;28;84354;-66
2022/10/10 04:26:07;;;;;;;5.30;3.97;;;22.70;99.90;;;;;;6252745;27;84028;-66
2022/10/10 04:29:09;;;;;;;5.28;4.38;;;22.70;99.90;;;;;;6256444;27;84364;-66
2022/10/10 04:32:11;;;;;;;4.85;4.35;;;22.70;99.90;;;;;;6258993;27;84300;-66
2022/10/10 04:35:14;;;;;;;4.90;4.40;;;22.70;99.90;;;;;;6246992;27;84027;-66
2022/10/10 04:38:16;;;;;;;4.60;4.03;;;22.70;99.90;;;;;;6254577;27;84144;-66
2022/10/10 04:41:18;;;;;;;4.30;3.90;;;22.70;99.90;;;;;;6248758;27;83233;-66
2022/10/10 04:44:20;;;;;;;4.60;4.20;;;22.70;99.90;;;;;;6254820;27;84040;-66
2022/10/10 04:47:22;;;;;;;4.60;3.97;;;22.70;99.90;;;;;;6245717;27;83975;-66
2022/10/10 04:50:26;;;;;;;4.85;4.10;;;22.80;99.90;;;;;;6247059;28;84947;-66
2022/10/10 04:53:28;;;;;;;4.43;4.03;;;22.80;99.90;;;;;;6240920;28;84008;-66
2022/10/10 04:56:30;;;;;;;6.15;4.38;;;22.70;99.90;;;;;;6251023;27;83984;-66
2022/10/10 04:59:57;;;;;;;4.80;4.30;;;22.70;99.90;;;;;;6246246;27;84036;-65
2022/10/10 05:02:59;;;;;;;4.30;3.90;;;22.80;99.90;;;;;;6249598;27;84559;-66
2022/10/10 05:06:02;;;;;;;4.30;3.75;;;22.80;99.90;;;;;;6251526;27;82953;-66
2022/10/10 05:09:04;;;;;;;4.05;3.65;;;22.80;99.90;;;;;;6248630;27;83230;-66
2022/10/10 05:12:06;;;;;;;4.53;4.03;;;22.80;99.90;;;;;;6248295;27;82241;-66
2022/10/10 05:15:09;;;;;;;4.82;3.90;;;22.80;99.90;;;;;;6252197;28;83799;-65
2022/10/10 05:18:11;;;;;;;4.53;4.07;;;22.90;99.90;;;;;;6244415;27;84289;-64
2022/10/10 05:21:14;;;;;;;5.07;4.05;;;22.90;99.90;;;;;;6251672;28;85238;-66
2022/10/10 05:24:16;;;;;;;5.50;4.15;;;22.90;99.90;;;;;;6257914;27;84165;-66
2022/10/10 05:27:18;;;;;;;4.53;3.95;;;22.90;99.90;;;;;;6258763;27;82940;-65
2022/10/10 05:30:20;;;;;;;5.15;4.30;;;22.90;99.90;;;;;;6259652;27;83993;-65
2022/10/10 05:33:22;;;;;;;5.93;4.15;;;23.00;99.90;;;;;;6257055;27;85302;-66
2022/10/10 05:36:25;;;;;;;4.13;3.70;;;22.90;99.90;;;;;;6236779;27;82767;-66
2022/10/10 05:39:27;;;;;;;4.22;3.70;;;22.90;99.90;;;;;;6255012;28;84002;-66
2022/10/10 05:42:30;;;;;;;4.88;4.00;;;22.90;99.90;;;;;;6248293;27;83231;-66
2022/10/10 05:45:32;;;;;;;4.13;3.65;;;22.90;99.90;;;;;;6260935;27;83004;-66
2022/10/10 05:48:34;;;;;;;4.10;3.70;;;22.90;99.90;;;;;;6260191;27;84154;-66
2022/10/10 05:51:37;;;;;;;5.30;3.97;;;23.00;99.90;;;;;;6249639;27;85315;-63
2022/10/10 05:54:39;;;;;;;4.53;4.03;;;22.90;99.90;;;;;;6243495;27;83925;-63
2022/10/10 05:57:41;;;;;;;4.00;3.50;;;22.90;99.90;;;;;;6254276;27;84027;-63
2022/10/10 06:00:46;;;;;;;4.35;3.70;;;22.90;99.90;;;;;;6235055;27;84026;-66
2022/10/10 06:03:51;;;;;;;3.78;3.33;;;22.90;99.90;;;;;;6247432;27;84088;-66
2022/10/10 06:06:54;;;;;;;4.20;3.70;;;22.90;99.90;;;;;;6256712;27;83074;-66
2022/10/10 06:09:56;;;;;;;4.75;3.80;;;22.90;99.90;;;;;;6249258;27;83985;-66
2022/10/10 06:12:58;;;;;;;3.63;3.33;;;22.90;99.90;;;;;;6259623;27;83193;-66
2022/10/10 06:16:00;;;;;;;4.75;3.80;;;22.90;99.90;;;;;;6250484;27;83257;-66
2022/10/10 06:19:03;;;;;;;3.97;3.50;;;22.90;99.90;;;;;;6258402;27;84009;-66
2022/10/10 06:22:07;;;;;;;4.13;3.58;;;22.90;99.90;;;;;;6257518;27;84937;-66
2022/10/10 06:25:09;;;;;;;4.30;3.70;;;22.90;99.90;;;;;;6250134;27;84533;-66
2022/10/10 06:28:12;;;;;;;4.05;3.63;;;23.00;99.90;;;;;;6249761;27;84081;-66
2022/10/10 06:31:14;;;;;;;3.85;3.05;;;22.90;99.90;;;;;;6258838;27;84305;-66
2022/10/10 06:34:16;;;;;;;4.55;3.70;;;22.90;99.90;;;;;;6251801;27;84139;-66
2022/10/10 06:37:20;;;;;;;3.75;3.35;;;22.90;99.90;;;;;;6259846;27;82904;-66
2022/10/10 06:40:22;;;;;;;4.05;3.53;;;23.00;99.90;;;;;;6249322;27;83917;-66
2022/10/10 06:43:24;;;;;;;3.47;3.17;;;22.90;99.90;;;;;;6241608;27;83208;-66
2022/10/10 06:46:26;;;;;;;3.80;3.28;;;23.00;99.90;;;;;;6241166;27;84126;-66
2022/10/10 06:49:29;;;;;;;3.80;3.25;;;23.00;99.90;;;;;;6244508;27;84982;-66
2022/10/10 06:52:32;;;;;;;3.75;3.38;;;23.00;99.90;;;;;;6254465;27;85034;-66
2022/10/10 06:55:34;;;;;;;4.93;3.53;;;23.00;99.90;;;;;;6247578;27;84217;-66
2022/10/10 06:58:36;;;;;;;5.20;3.65;;;23.00;99.90;;;;;;6241375;27;84118;-66
2022/10/10 07:01:38;;;;;;;4.10;3.40;;;23.10;99.90;;;;;;6243189;27;84003;-66
2022/10/10 07:04:40;;;;;;;4.22;3.42;;;23.00;99.90;;;;;;6257748;27;82938;-66
2022/10/10 07:07:45;;;;;;;4.30;3.40;;;23.10;99.90;;;;;;6258020;27;84013;-67
2022/10/10 07:10:47;;;;;;;3.58;3.25;;;23.10;99.90;;;;;;6259019;27;83129;-66
2022/10/10 07:13:51;;;;;;;4.45;3.40;;;23.10;99.90;;;;;;6247539;27;83243;-66
2022/10/10 07:16:53;;;;;;;4.05;3.30;;;23.10;99.90;;;;;;6247119;27;84283;-66
2022/10/10 07:19:55;;;;;;;4.55;3.65;;;23.10;99.90;;;;;;6252394;27;82996;-67
2022/10/10 07:22:58;;;;;;;3.20;2.90;;;23.10;99.90;;;;;;6243040;28;85086;-66
2022/10/10 07:26:03;;;;;;;3.47;2.90;;;23.10;99.90;;;;;;6252197;27;84111;-66
2022/10/10 07:29:05;;;;;;;3.67;3.10;;;23.10;99.90;;;;;;6250428;27;83935;-66
2022/10/10 07:32:07;;;;;;;3.28;2.90;;;23.20;99.90;;;;;;6249749;27;84069;-67
2022/10/10 07:35:10;;;;;;;3.45;3.03;;;23.20;99.90;;;;;;6251856;27;82954;-66
2022/10/10 07:38:14;;;;;;;3.33;2.80;;;23.20;99.90;;;;;;6259264;27;82915;-67
2022/10/10 07:41:16;;;;;;;3.85;3.17;;;23.20;99.90;;;;;;6258386;27;82938;-67
2022/10/10 07:44:19;;;;;;;3.38;2.90;;;23.20;99.90;;;;;;6255390;27;82193;-67
2022/10/10 07:47:21;;;;;;;4.35;3.35;;;23.20;99.90;;;;;;6245758;27;83967;-67
2022/10/10 07:50:24;;;;;;;4.32;3.00;;;23.20;99.90;;;;;;6259899;27;82933;-67
2022/10/10 07:53:28;;;;;;;3.63;2.80;;;23.20;99.90;;;;;;6235232;27;85080;-66
2022/10/10 07:56:30;;;;;;;3.65;2.78;;;23.20;99.90;;;;;;6246609;27;84242;-66
2022/10/10 07:59:32;;;;;;;3.53;2.92;;;23.20;99.90;;;;;;6241262;27;84076;-66
2022/10/10 08:02:34;;;;;;;4.05;2.65;;;23.20;99.90;;;;;;6244988;27;82862;-66
2022/10/10 08:05:40;;;;;;;4.03;3.03;;;23.20;99.90;;;;;;6239918;28;83601;-66
2022/10/10 08:08:47;;;;;;;3.28;2.97;;;23.30;99.90;;;;;;6250576;27;84392;-66
2022/10/10 08:11:49;;;;;;;3.15;2.78;;;23.30;99.90;;;;;;6255033;27;84314;-67
2022/10/10 08:14:51;;;;;;;4.82;3.15;;;23.30;99.90;;;;;;6246198;27;82492;-66
2022/10/10 08:17:53;;;;;;;3.30;2.83;;;23.30;99.90;;;;;;6258926;27;83998;-66
2022/10/10 08:20:59;;;;;;;3.17;2.58;;;23.30;99.90;;;;;;6251976;27;83006;-66
2022/10/10 08:24:03;;;;;;;3.03;2.58;;;23.30;99.90;;;;;;6245330;27;85341;-66
2022/10/10 08:27:05;;;;;;;3.15;2.60;;;23.30;99.90;;;;;;6248906;27;84010;-66
2022/10/10 08:30:07;;;;;;;3.15;2.80;;;23.30;99.90;;;;;;6253856;27;84562;-65
2022/10/10 08:33:09;;;;;;;4.03;3.00;;;23.30;99.90;;;;;;6254006;27;83848;-66
2022/10/10 08:36:14;;;;;;;3.45;2.80;;;23.30;99.90;;;;;;6254805;27;83288;-66
2022/10/10 08:39:17;;;;;;;3.72;2.47;;;23.30;99.90;;;;;;6249910;27;83991;-65
2022/10/10 08:42:26;;;;;;;2.85;2.53;;;23.30;99.90;;;;;;6250382;28;83992;-66
2022/10/10 08:45:30;;;;;;;3.00;2.58;;;23.30;99.90;;;;;;6257785;27;83204;-66
2022/10/10 08:48:32;;;;;;;3.60;2.50;;;23.40;99.90;;;;;;6253328;27;83988;-66
2022/10/10 08:51:35;;;;;;;3.38;2.67;;;23.30;99.90;;;;;;6249150;27;84015;-66
2022/10/10 08:54:41;;;;;;;3.63;2.65;;;23.40;99.90;;;;;;6254811;27;85052;-66
2022/10/10 08:57:49;;;;;;;3.05;2.30;;;23.40;99.90;;;;;;6254241;27;84171;-66
2022/10/10 09:00:56;;;;;;;2.85;2.50;;;23.40;99.90;;;;;;6256017;27;84482;-66
2022/10/10 09:04:01;;;;;;;2.95;2.58;;;23.40;99.90;;;;;;6255840;27;84010;-66
2022/10/10 09:07:17;;;;;;;3.13;2.45;;;23.40;99.90;;;;;;6248899;27;84104;-66
2022/10/10 09:10:29;;;;;;;2.75;2.22;;;23.40;99.90;;;;;;6250620;27;84264;-66
2022/10/10 09:13:35;;;;;;;3.72;2.50;;;23.40;99.90;;;;;;6255442;27;84051;-66
2022/10/10 09:16:46;;;;;;;2.90;2.40;;;23.40;99.90;;;;;;6258138;27;82206;-66
2022/10/10 09:19:59;;;;;;;3.25;2.53;;;23.40;99.90;;;;;;6251713;27;84180;-67
2022/10/10 09:23:04;;;;;;;3.17;2.60;;;23.40;99.90;;;;;;6245449;27;84037;-67
2022/10/10 09:26:11;;;;;;;4.28;2.35;;;23.50;99.90;;;;;;6260280;27;84293;-66
2022/10/10 09:29:27;;;;;;;3.53;2.30;;;23.50;99.90;;;;;;6261165;27;82969;-66
2022/10/10 09:32:33;;;;;;;2.83;2.33;;;23.40;99.90;;;;;;6254552;27;82907;-66
2022/10/10 09:35:38;;;;;;;3.45;2.40;;;23.50;99.90;;;;;;6255363;27;82909;-66
2022/10/10 09:38:46;;;;;;;3.53;2.70;;;23.50;99.90;;;;;;6260340;27;84044;-66
2022/10/10 09:41:55;;;;;;;3.03;2.38;;;23.50;99.90;;;;;;6260774;27;84076;-64
2022/10/10 09:44:58;;;;;;;3.42;2.17;;;23.50;99.90;;;;;;6257865;27;84872;-66
2022/10/10 09:48:00;;;;;;;4.60;2.40;;;23.50;99.90;;;;;;6259823;27;83354;-66
2022/10/10 09:51:04;;;;;;;4.93;2.67;;;23.50;99.90;;;;;;6257080;27;84371;-66
2022/10/10 09:54:07;;;;;;;4.75;2.85;;;23.50;99.90;;;;;;6244678;27;82915;-66
2022/10/10 09:57:15;;;;;;;3.60;2.45;;;23.50;99.90;;;;;;6249216;27;84941;-66
2022/10/10 10:00:35;;;;;;;3.97;2.50;;;23.50;99.90;;;;;;6247756;27;84045;-65
2022/10/10 10:03:37;;;;;;;4.22;2.42;;;23.60;99.90;;;;;;6250901;27;83969;-66
2022/10/10 10:06:42;;;;;;;6.72;6.00;;;23.60;99.90;;;;;;6246911;27;84024;-67
2022/10/10 10:09:47;;;;;;;552.85;496.25;;;23.60;99.90;;;;;;6255558;27;82899;-64
2022/10/10 10:12:52;;;;;;;1206.43;874.55;;;23.60;99.90;;;;;;6249339;27;85308;-65
2022/10/10 10:16:02;;;;;;;723.10;645.97;;;23.80;99.90;;;;;;6253652;27;85702;-66
2022/10/10 10:19:06;;;;;;;418.60;372.67;;;24.00;99.90;;;;;;6257683;27;85304;-65
2022/10/10 10:22:24;;;;;;;275.00;238.55;;;24.10;99.90;;;;;;6248165;27;86760;-66
2022/10/10 10:25:32;;;;;;;227.50;188.55;;;24.10;99.90;;;;;;6256143;27;85198;-66
2022/10/10 10:28:41;;;;;;;187.45;150.35;;;24.20;99.90;;;;;;6247101;27;85235;-65
2022/10/10 10:31:56;;;;;;;152.88;123.07;;;24.20;99.90;;;;;;6243059;27;85281;-65
2022/10/10 10:35:19;;;;;;;126.50;100.65;;;24.20;99.80;;;;;;6246143;27;85175;-65
2022/10/10 10:38:34;;;;;;;104.50;83.15;;;24.20;98.60;;;;;;6251373;27;85297;-65
2022/10/10 10:41:45;;;;;;;101.88;81.00;;;24.10;97.80;;;;;;6257429;28;84087;-65
2022/10/10 10:44:58;;;;;;;84.75;65.85;;;24.10;98.70;;;;;;6257432;27;83948;-65
2022/10/10 10:48:11;;;;;;;68.32;54.40;;;24.00;98.70;;;;;;6254793;27;82966;-65
2022/10/10 10:51:30;;;;;;;67.93;51.72;;;24.00;97.70;;;;;;6247245;27;83563;-65
2022/10/10 10:54:47;;;;;;;58.72;46.20;;;23.90;97.70;;;;;;6244896;27;84294;-65
2022/10/10 10:58:04;;;;;;;49.85;39.83;;;23.90;98.30;;;;;;6256358;27;84579;-66
2022/10/10 11:01:14;;;;;;;49.67;39.08;;;23.90;97.60;;;;;;6252215;27;84940;-66
2022/10/10 11:04:27;;;;;;;46.03;35.67;;;23.90;98.10;;;;;;6255067;27;84013;-65
2022/10/10 11:07:35;;;;;;;37.88;29.02;;;23.80;98.00;;;;;;6249424;27;84299;-66
2022/10/10 11:10:44;;;;;;;41.97;27.48;;;23.80;97.90;;;;;;6248660;27;84407;-66
2022/10/10 11:13:56;;;;;;;47.65;28.40;;;23.80;97.70;;;;;;6235122;27;84040;-66
2022/10/10 11:17:07;;;;;;;43.10;24.48;;;23.70;98.60;;;;;;6243766;27;84032;-66
2022/10/10 11:20:20;;;;;;;42.75;23.80;;;23.70;98.20;;;;;;6242792;27;88997;-66
2022/10/10 11:23:28;;;;;;;37.42;20.23;;;23.70;99.10;;;;;;6240734;27;88368;-66
2022/10/10 11:26:32;;;;;;;32.88;18.35;;;23.70;98.70;;;;;;6241150;27;89055;-66
2022/10/10 11:29:47;;;;;;;26.65;15.30;;;23.70;98.20;;;;;;6245790;27;89063;-66
2022/10/10 11:32:54;;;;;;;17.83;13.05;;;23.60;97.20;;;;;;6238978;27;90086;-66
2022/10/10 11:36:01;;;;;;;21.48;12.13;;;23.60;97.30;;;;;;6241389;27;89046;-66
2022/10/10 11:39:12;;;;;;;17.77;10.68;;;23.60;97.50;;;;;;6238592;27;89014;-66
2022/10/10 11:42:18;;;;;;;29.90;12.75;;;23.60;96.70;;;;;;6247709;27;87950;-66
2022/10/10 11:45:25;;;;;;;45.30;15.45;;;23.60;97.10;;;;;;6243214;27;89413;-66
2022/10/10 11:48:37;;;;;;;44.03;16.17;;;23.60;97.30;;;;;;6254313;27;89087;-66
2022/10/10 11:51:48;;;;;;;47.95;17.35;;;23.60;98.10;;;;;;6238806;27;89140;-66
2022/10/10 11:54:57;;;;;;;24.58;11.20;;;23.60;98.80;;;;;;6244019;27;88343;-66
2022/10/10 11:58:25;;;;;;;17.60;7.95;;;23.60;96.60;;;;;;6250113;27;89019;-66
2022/10/10 12:01:31;;;;;;;15.80;7.25;;;23.50;94.30;;;;;;6240240;27;89111;-66
2022/10/10 12:04:37;;;;;;;18.17;7.10;;;23.50;94.10;;;;;;6233251;27;90096;-66
2022/10/10 12:07:43;;;;;;;14.23;5.60;;;23.50;94.60;;;;;;6251747;27;87799;-66
2022/10/10 12:10:50;;;;;;;11.00;6.18;;;23.40;95.10;;;;;;6245402;27;89110;-66
2022/10/10 12:13:56;;;;;;;8.35;5.05;;;23.40;93.90;;;;;;6242866;27;88196;-66
2022/10/10 12:16:59;;;;;;;8.30;4.65;;;23.40;93.30;;;;;;6231382;27;89089;-66
2022/10/10 12:20:11;;;;;;;5.55;4.60;;;23.40;92.80;;;;;;6250042;27;89078;-65
2022/10/10 12:23:24;;;;;;;6.38;4.90;;;23.40;93.20;;;;;;6249199;27;88987;-66
2022/10/10 12:26:57;;;;;;;8.63;4.50;;;23.40;93.40;;;;;;6239644;27;88350;-66
2022/10/10 12:30:18;;;;;;;8.43;4.45;;;23.40;99.90;;;;;;6246342;27;89521;-66
2022/10/10 12:33:22;;;;;;;5.50;4.07;;;23.50;96.50;;;;;;6258065;28;89056;-66
2022/10/10 12:36:56;;;;;;;6.63;3.60;;;23.60;94.60;;;;;;6249079;27;90270;-66
2022/10/10 12:40:20;;;;;;;6.65;3.65;;;23.60;93.70;;;;;;6233360;27;87953;-66
2022/10/10 12:43:24;;;;;;;6.93;3.42;;;23.60;93.70;;;;;;6257927;27;89148;-66
2022/10/10 12:46:29;;;;;;;6.60;3.38;;;23.60;93.90;;;;;;6245227;27;89369;-66
2022/10/10 12:49:31;;;;;;;6.00;3.25;;;23.60;94.00;;;;;;6256355;27;90141;-66
2022/10/10 12:52:45;;;;;;;3.65;3.22;;;23.70;94.00;;;;;;6247195;27;89184;-66
2022/10/10 12:55:48;;;;;;;6.32;3.33;;;23.70;94.10;;;;;;6256913;27;89363;-66
2022/10/10 12:58:50;;;;;;;5.57;3.20;;;23.70;94.00;;;;;;6258578;27;88430;-66
2022/10/10 13:01:56;;;;;;;5.22;3.20;;;23.70;94.20;;;;;;6255456;27;89095;-66
2022/10/10 13:05:01;;;;;;;6.35;3.15;;;23.70;94.40;;;;;;6243830;27;89247;-66
2022/10/10 13:08:08;;;;;;;5.20;3.00;;;23.70;94.40;;;;;;6255749;27;90338;-66
2022/10/10 13:11:12;;;;;;;6.95;3.15;;;23.70;94.40;;;;;;6254200;27;89226;-66
2022/10/10 13:14:14;;;;;;;6.00;3.33;;;23.70;94.10;;;;;;6256305;27;89186;-66
2022/10/10 13:17:25;;;;;;;5.30;3.20;;;23.70;94.20;;;;;;6253821;27;89031;-66
2022/10/10 13:20:31;;;;;;;5.30;2.90;;;23.70;94.50;;;;;;6249709;27;87962;-67
2022/10/10 13:23:37;;;;;;;5.75;3.00;;;23.70;94.70;;;;;;6257548;27;88981;-66
2022/10/10 13:26:43;;;;;;;4.38;2.88;;;23.70;94.90;;;;;;6255414;27;89054;-66
2022/10/10 13:29:46;;;;;;;6.15;3.08;;;23.70;94.70;;;;;;6256922;27;88569;-66
2022/10/10 13:32:49;;;;;;;4.22;2.92;;;23.70;94.60;;;;;;6255749;27;89439;-66
2022/10/10 13:35:51;;;;;;;3.80;2.50;;;23.70;94.60;;;;;;6251318;27;89051;-66
2022/10/10 13:38:55;;;;;;;3.90;2.63;;;23.70;94.80;;;;;;6254281;27;89970;-66
2022/10/10 13:41:58;;;;;;;4.47;3.00;;;23.60;95.30;;;;;;6253782;27;89274;-66
2022/10/10 13:45:02;;;;;;;3.55;2.80;;;23.60;95.40;;;;;;6251586;27;89140;-66
2022/10/10 13:48:21;;;;;;;3.58;2.75;;;23.60;95.20;;;;;;6255862;27;88287;-66
2022/10/10 13:51:42;;;;;;;4.38;3.00;;;23.70;95.10;;;;;;6254969;27;87962;-66
2022/10/10 13:54:46;;;;;;;3.78;2.80;;;23.60;95.00;;;;;;6250169;27;89345;-65
2022/10/10 13:57:50;;;;;;;4.25;2.67;;;23.60;95.00;;;;;;6239390;27;87950;-65
2022/10/10 14:00:56;;;;;;;3.45;3.00;;;23.60;95.20;;;;;;6245510;27;86965;-65
2022/10/10 14:04:03;;;;;;;4.15;2.63;;;23.60;95.40;;;;;;6250652;27;89035;-65
2022/10/10 14:07:07;;;;;;;3.55;2.72;;;23.60;95.40;;;;;;6248356;27;89181;-65
2022/10/10 14:10:16;;;;;;;3.75;2.67;;;23.60;95.40;;;;;;6250510;27;90039;-65
2022/10/10 14:13:18;;;;;;;4.07;2.72;;;23.60;95.40;;;;;;6255667;27;90266;-66
2022/10/10 14:16:24;;;;;;;4.03;2.78;;;23.60;95.60;;;;;;6249065;27;89110;-65
2022/10/10 14:19:26;;;;;;;4.63;2.80;;;23.60;95.60;;;;;;6250888;27;89009;-65
2022/10/10 14:22:28;;;;;;;3.35;2.60;;;23.60;95.70;;;;;;6239509;27;89174;-65
2022/10/10 14:25:32;;;;;;;8.32;3.03;;;23.60;95.80;;;;;;6256147;27;89211;-65
2022/10/10 14:28:37;;;;;;;4.18;2.65;;;23.60;95.90;;;;;;6242819;27;89081;-65
2022/10/10 14:31:39;;;;;;;4.70;2.78;;;23.60;95.80;;;;;;6246142;27;88422;-65
2022/10/10 14:34:41;;;;;;;3.30;2.60;;;23.60;95.90;;;;;;6257097;27;89121;-65
2022/10/10 14:37:43;;;;;;;4.13;2.75;;;23.60;96.00;;;;;;6254206;27;89034;-65
2022/10/10 14:40:49;;;;;;;5.55;2.70;;;23.60;96.00;;;;;;6246489;27;90047;-65
2022/10/10 14:43:51;;;;;;;4.22;2.70;;;23.60;96.10;;;;;;6244877;27;89168;-65
2022/10/10 14:46:53;;;;;;;3.78;2.58;;;23.60;96.20;;;;;;6252047;27;87984;-65
2022/10/10 14:49:56;;;;;;;2.95;2.45;;;23.60;96.20;;;;;;6245174;27;89044;-65
2022/10/10 14:52:58;;;;;;;2.83;2.38;;;23.60;96.30;;;;;;6251620;27;89033;-65
2022/10/10 14:56:02;;;;;;;3.65;2.85;;;23.60;96.40;;;;;;6247004;27;88193;-65
2022/10/10 14:59:04;;;;;;;3.72;2.55;;;23.60;96.40;;;;;;6252862;27;87796;-65
2022/10/10 15:02:06;;;;;;;3.65;2.88;;;23.60;96.40;;;;;;6257508;27;87754;-65
2022/10/10 15:05:09;;;;;;;5.43;2.63;;;23.60;96.60;;;;;;6251451;27;88026;-65
2022/10/10 15:08:13;;;;;;;3.83;2.42;;;23.60;96.60;;;;;;6251901;27;90017;-65
2022/10/10 15:11:17;;;;;;;3.17;2.80;;;23.60;96.70;;;;;;6246597;27;90084;-65
2022/10/10 15:14:19;;;;;;;3.13;2.63;;;23.60;96.80;;;;;;6251821;27;89110;-66
2022/10/10 15:17:23;;;;;;;4.15;2.80;;;23.60;96.90;;;;;;6245548;27;89470;-66
2022/10/10 15:20:29;;;;;;;3.33;2.47;;;23.60;97.00;;;;;;6248212;27;87949;-66
2022/10/10 15:23:31;;;;;;;2.83;2.40;;;23.60;97.10;;;;;;6247118;27;90625;-65
2022/10/10 15:26:34;;;;;;;3.45;2.50;;;23.60;97.20;;;;;;6246553;27;89200;-66
2022/10/10 15:29:39;;;;;;;3.17;2.42;;;23.60;97.30;;;;;;6251901;27;89266;-65
2022/10/10 15:32:41;;;;;;;2.65;2.38;;;23.60;97.40;;;;;;6247930;27;88518;-65
2022/10/10 15:35:43;;;;;;;3.30;2.50;;;23.60;97.40;;;;;;6249805;27;89132;-65
2022/10/10 15:38:45;;;;;;;3.33;2.45;;;23.60;97.50;;;;;;6256075;27;89350;-65
2022/10/10 15:41:48;;;;;;;3.92;2.40;;;23.60;97.70;;;;;;6253347;27;90199;-65
2022/10/10 15:44:51;;;;;;;3.72;2.53;;;23.60;97.80;;;;;;6254072;27;89141;-65
2022/10/10 15:47:53;;;;;;;6.00;2.53;;;23.60;98.10;;;;;;6245495;27;89043;-66
2022/10/10 15:50:55;;;;;;;3.65;2.45;;;23.60;98.40;;;;;;6253175;27;89532;-66
2022/10/10 15:53:57;;;;;;;5.60;2.70;;;23.60;98.50;;;;;;6254987;27;89057;-66
2022/10/10 15:57:00;;;;;;;5.45;2.28;;;23.60;98.60;;;;;;6252636;27;89083;-66
2022/10/10 16:00:04;;;;;;;5.35;2.40;;;23.60;99.00;;;;;;6236355;27;89000;-66